It's Wednesday,
October 23rd, 2019
User not logged in
[Run Race Header Image][Run Race logo]
  
Race webcasting is attempted by race directors and their support staff. Please remember that conditions under which they're working may make it difficult to post timely webcast updates... your interest and patience is appreciated!
Race Information
Race Name:2nd Annual Indiana Trail 100
Location:Albion
State:Indiana, United States
 button: button: Webcast Autoplay
Event Information
Name of Event:100 Mile Trail
Distance:100 Miles
Started Date/Time:Saturday April 26th, 2014, 5:59:34.15 am
button: Assign Numbers  
Checkpoint:Finish5
Distance:83.35 Miles
Gun Start Time:Saturday April 26th, 2014 5:59:34.15 am
Calculate Chip Start Time:< not set >
Y or N... Calculate splits based upon participant chip start time?
Allow Early Chip Start Time:< not set >
Y or N... Allow participants a chip start time prior to gun start?
Pos Race
Number
NameAgeSexTimePace 
1141Shan Riggs35M14:10:14.610:12.1Sat Apr 26th, 2014 8:09:48 pm
2166Jim Trout44M14:32:41.610:28.2Sat Apr 26th, 2014 8:32:15 pm
314John Bertram51M14:36:31.510:31.0Sat Apr 26th, 2014 8:36:05 pm
434Vincent Corona30M14:48:40.410:39.7Sat Apr 26th, 2014 8:48:14 pm
5148Travis Shields37M14:53:09.510:42.9Sat Apr 26th, 2014 8:52:43 pm
6182Craig Wheeler52M15:13:36.310:57.7Sat Apr 26th, 2014 9:13:10 pm
7151Jen Skelly34F15:23:02.111:04.5Sat Apr 26th, 2014 9:22:36 pm
8158Paul Stofko38M15:37:47.411:15.1Sat Apr 26th, 2014 9:37:21 pm
926Jessica Campbell21F16:08:16.911:37.0Sat Apr 26th, 2014 10:07:51 pm
1041Paul Dott31M16:10:08.811:38.4Sat Apr 26th, 2014 10:09:42 pm
11127Daniel Paige34M16:33:34.511:55.2Sat Apr 26th, 2014 10:33:08 pm
1220Erin Brady42F16:39:54.311:59.8Sat Apr 26th, 2014 10:39:28 pm
1382Juan Juarez42M17:00:23.312:14.5Sat Apr 26th, 2014 10:59:57 pm
14140Kirk Ridenour54M17:01:29.912:15.3Sat Apr 26th, 2014 11:01:04 pm
15104David Mentjes44M17:03:10.812:16.5Sat Apr 26th, 2014 11:02:44 pm
1644Tanya Eggert44F17:20:19.912:28.9Sat Apr 26th, 2014 11:19:54 pm
1779David E. Jackson36M17:24:00.412:31.5Sat Apr 26th, 2014 11:23:34 pm
1887Ryan "Stormy" Knight37M17:35:42.212:40.0Sat Apr 26th, 2014 11:35:16 pm
1968Shawn Hawk49M17:41:24.012:44.1Sat Apr 26th, 2014 11:40:58 pm
2046Mike Else45M17:53:08.712:52.5Sat Apr 26th, 2014 11:52:42 pm
2124todd brown45M18:02:54.812:59.5Sun Apr 27th, 2014 12:02:28 am
22113SIAMAK MOSTOUFI39M18:02:55.012:59.5Sun Apr 27th, 2014 12:02:29 am
23115Carolynn Nauta32F18:06:47.613:02.3Sun Apr 27th, 2014 12:06:21 am
24162Mark Thill38M18:08:32.713:03.6Sun Apr 27th, 2014 12:08:06 am
2528Tony Cesario50M18:18:41.613:10.9Sun Apr 27th, 2014 12:18:15 am
26133Richard Plezia55M18:21:12.013:12.7Sun Apr 27th, 2014 12:20:46 am
27183Anastasia Andrychowski34F18:21:23.713:12.8Sun Apr 27th, 2014 12:20:57 am
28134dave potter49M18:27:13.813:17.0Sun Apr 27th, 2014 12:26:47 am
29177Eric Fritz46M18:35:48.013:23.2Sun Apr 27th, 2014 12:35:22 am
30181Rene Samano28M18:38:18.113:25.0Sun Apr 27th, 2014 12:37:52 am
3150Linda Keuneke50F18:38:51.213:25.4Sun Apr 27th, 2014 12:38:25 am
3262Martin Guthrie47M18:43:34.113:28.8Sun Apr 27th, 2014 12:43:08 am
33116David Nelson26M18:44:42.313:29.6Sun Apr 27th, 2014 12:44:16 am
34125Jeff Oliver40M18:49:37.613:33.2Sun Apr 27th, 2014 12:49:11 am
35154Mike Smith56M18:49:55.013:33.4Sun Apr 27th, 2014 12:49:29 am
36114Larry Mullinnix49M18:51:10.113:34.3Sun Apr 27th, 2014 12:50:44 am
37123Reggie O'HARA45M18:51:10.513:34.3Sun Apr 27th, 2014 12:50:44 am
3854Tom Fifer51M18:53:29.913:36.0Sun Apr 27th, 2014 12:53:04 am
3940Noe j Dominguez45M19:01:26.313:41.7Sun Apr 27th, 2014 1:01:00 am
4042Michael Dowdell38M19:22:05.913:56.5Sun Apr 27th, 2014 1:21:40 am
41103Chris McMahon54M19:30:20.114:02.5Sun Apr 27th, 2014 1:29:54 am
4257Mark Gavorski48M19:30:36.914:02.7Sun Apr 27th, 2014 1:30:11 am
4336John Cushma40M19:33:48.714:05.0Sun Apr 27th, 2014 1:33:22 am
4463Jerret Halter32M19:39:37.014:09.2Sun Apr 27th, 2014 1:39:11 am
4573Jeff Hogan45M19:40:26.214:09.7Sun Apr 27th, 2014 1:40:00 am
4683Chris Junken35M19:45:33.114:13.4Sun Apr 27th, 2014 1:45:07 am
4772Rich Henderson58M19:51:54.814:18.0Sun Apr 27th, 2014 1:51:28 am
4817Andrew Borst43M19:53:55.214:19.5Sun Apr 27th, 2014 1:53:29 am
4976Scott Hudson46M19:56:07.914:21.0Sun Apr 27th, 2014 1:55:42 am
50171Marci Wease37F20:00:56.514:24.5Sun Apr 27th, 2014 2:00:30 am
51108Joshua Mock32M20:02:45.814:25.8Sun Apr 27th, 2014 2:02:19 am
52156Phil Stapert47M20:07:04.214:28.9Sun Apr 27th, 2014 2:06:38 am
5356Helen Garen49F20:09:15.014:30.5Sun Apr 27th, 2014 2:08:49 am
5451Dan Fabish18M20:11:29.914:32.1Sun Apr 27th, 2014 2:11:04 am
5591Bill Kulwicki55M20:14:06.414:34.0Sun Apr 27th, 2014 2:13:40 am
5621Bob Brashear55M20:19:12.414:37.7Sun Apr 27th, 2014 2:18:46 am
578Brian Barger53M20:38:07.614:51.3Sun Apr 27th, 2014 2:37:41 am
58107Kirk Misaka55M20:40:24.014:52.9Sun Apr 27th, 2014 2:39:58 am
5999Daniel Maddox38M20:46:23.914:57.2Sun Apr 27th, 2014 2:45:58 am
6039Nathan DeWall34M20:57:31.115:05.2Sun Apr 27th, 2014 2:57:05 am
61159Steve Sunbury44M20:58:33.915:06.0Sun Apr 27th, 2014 2:58:08 am
62130Alfredo ''Moose'' Pedro45M21:00:20.815:07.3Sun Apr 27th, 2014 2:59:54 am
63174Randall Yost55M21:06:37.615:11.8Sun Apr 27th, 2014 3:06:11 am
64143Matthew Santner37M21:13:32.015:16.8Sun Apr 27th, 2014 3:13:06 am
65146Rob Schultz47M21:14:39.115:17.6Sun Apr 27th, 2014 3:14:13 am
6666Dick Canterbury66M21:14:42.115:17.6Sun Apr 27th, 2014 3:14:16 am
6725Aaron Butler32M21:19:49.715:21.3Sun Apr 27th, 2014 3:19:23 am
68121Mark Norfleet57M21:29:39.415:28.4Sun Apr 27th, 2014 3:29:13 am
69178Joe Cuthbertson39M21:49:15.715:42.5Sun Apr 27th, 2014 3:48:49 am
702Kurt Adams35M21:49:31.115:42.7Sun Apr 27th, 2014 3:49:05 am
715LEE ANDERSON56M21:54:33.415:46.3Sun Apr 27th, 2014 3:54:07 am
7252Jamie Farley35M22:11:57.815:58.8Sun Apr 27th, 2014 4:11:31 am
7316toni bohannon46F22:15:03.716:01.1Sun Apr 27th, 2014 4:14:37 am
74169Chris Walker34M22:15:40.516:01.5Sun Apr 27th, 2014 4:15:14 am
7586John Klarquist49M22:23:43.416:07.3Sun Apr 27th, 2014 4:23:17 am
7653Ramon Ferrer Jr34M22:24:47.016:08.1Sun Apr 27th, 2014 4:24:21 am
77105Craig Meseko29M22:30:17.916:12.0Sun Apr 27th, 2014 4:29:52 am
7874Alex "ACE" Honigford33M22:30:31.516:12.2Sun Apr 27th, 2014 4:30:05 am
79167Ali Turfe50M22:31:37.016:13.0Sun Apr 27th, 2014 4:31:11 am
8078Lauren Idzik43F22:32:30.916:13.6Sun Apr 27th, 2014 4:32:05 am
816Ric Angara43M22:33:01.716:14.0Sun Apr 27th, 2014 4:32:35 am
82124Ethan Olds24M22:36:02.316:16.2Sun Apr 27th, 2014 4:35:36 am
8331Mark Coates33M22:36:02.816:16.2Sun Apr 27th, 2014 4:35:36 am
8448Karen Erba44F22:40:37.716:19.5Sun Apr 27th, 2014 4:40:11 am
8564Cindylee Torres54F22:41:24.616:20.0Sun Apr 27th, 2014 4:40:58 am
8693John Leighton53M22:46:25.616:23.6Sun Apr 27th, 2014 4:45:59 am
8733Aaron Conner41M22:49:08.816:25.6Sun Apr 27th, 2014 4:48:42 am
8869Kent Heck52M22:59:14.916:32.9Sun Apr 27th, 2014 4:58:49 am
89101Sondra Marker50F23:08:17.116:39.4Sun Apr 27th, 2014 5:07:51 am
90120Caleb Nolen28M23:08:37.116:39.6Sun Apr 27th, 2014 5:08:11 am
9170Mike Heider54M23:10:49.516:41.2Sun Apr 27th, 2014 5:10:23 am
9238James Davidson51M23:15:31.716:44.6Sun Apr 27th, 2014 5:15:05 am
9312Richard Barton61M23:16:03.216:45.0Sun Apr 27th, 2014 5:15:37 am
949Crystal Barton38F23:16:22.316:45.2Sun Apr 27th, 2014 5:15:56 am
95150Robert Siscoe59M23:23:03.916:50.0Sun Apr 27th, 2014 5:22:38 am
9647David Englund46M23:42:25.417:03.9Sun Apr 27th, 2014 5:41:59 am
97138Frank Rampton57M23:55:25.117:13.3Sun Apr 27th, 2014 5:54:59 am
98137Jamie Quarandillo40F23:58:43.917:15.7Sun Apr 27th, 2014 5:58:18 am
99122Terry Null55M24:00:21.017:16.8Sun Apr 27th, 2014 5:59:55 am
100173Michael Wolff41M24:02:06.517:18.1Sun Apr 27th, 2014 6:01:40 am
101176Stan Zygmunt51M24:08:57.517:23.0Sun Apr 27th, 2014 6:08:31 am
102172Kenneth Westerman55M24:28:34.417:37.2Sun Apr 27th, 2014 6:28:08 am
103111James Cooper44M25:20:09.218:14.3Sun Apr 27th, 2014 7:19:43 am

Event Information
Name of Event:50 Mile Trail
Distance:50 Miles
Started Date/Time:Saturday April 26th, 2014, 5:59:34.15 am
button: Assign Numbers 
2004-2019 : All rights reserved
Terms and Conditions